sensor_id;sensor_type;location;lat;lon;timestamp;temperature;humidity
43697;DHT22;29301;47.620;19.560;2023-02-11T00:01:48;-3.30;64.80
43697;DHT22;29301;47.620;19.560;2023-02-11T00:04:14;-3.40;64.70
43697;DHT22;29301;47.620;19.560;2023-02-11T00:06:40;-3.40;64.80
43697;DHT22;29301;47.620;19.560;2023-02-11T00:09:06;-3.40;64.80
43697;DHT22;29301;47.620;19.560;2023-02-11T00:11:32;-3.40;64.70
43697;DHT22;29301;47.620;19.560;2023-02-11T00:14:03;-3.80;63.70
43697;DHT22;29301;47.620;19.560;2023-02-11T00:16:30;-4.10;64.70
43697;DHT22;29301;47.620;19.560;2023-02-11T00:18:59;-4.30;65.90
43697;DHT22;29301;47.620;19.560;2023-02-11T00:21:25;-4.30;67.00
43697;DHT22;29301;47.620;19.560;2023-02-11T00:23:52;-4.10;67.70
43697;DHT22;29301;47.620;19.560;2023-02-11T00:26:22;-3.90;67.70
43697;DHT22;29301;47.620;19.560;2023-02-11T00:28:49;-3.70;67.50
43697;DHT22;29301;47.620;19.560;2023-02-11T00:31:17;-3.70;67.10
43697;DHT22;29301;47.620;19.560;2023-02-11T00:33:43;-3.60;67.00
43697;DHT22;29301;47.620;19.560;2023-02-11T00:36:13;-3.70;66.70
43697;DHT22;29301;47.620;19.560;2023-02-11T00:38:41;-3.60;66.80
43697;DHT22;29301;47.620;19.560;2023-02-11T00:41:07;-3.70;66.40
43697;DHT22;29301;47.620;19.560;2023-02-11T00:43:32;-3.90;66.70
43697;DHT22;29301;47.620;19.560;2023-02-11T00:45:58;-3.80;67.20
43697;DHT22;29301;47.620;19.560;2023-02-11T00:48:24;-3.70;67.40
43697;DHT22;29301;47.620;19.560;2023-02-11T00:50:49;-3.60;67.30
43697;DHT22;29301;47.620;19.560;2023-02-11T00:53:15;-3.60;66.90
43697;DHT22;29301;47.620;19.560;2023-02-11T00:55:41;-3.70;67.20
43697;DHT22;29301;47.620;19.560;2023-02-11T00:58:06;-3.90;67.90
43697;DHT22;29301;47.620;19.560;2023-02-11T01:00:32;-4.10;69.30
43697;DHT22;29301;47.620;19.560;2023-02-11T01:02:58;-4.10;70.90
43697;DHT22;29301;47.620;19.560;2023-02-11T01:05:23;-4.10;72.10
43697;DHT22;29301;47.620;19.560;2023-02-11T01:07:49;-4.10;72.80
43697;DHT22;29301;47.620;19.560;2023-02-11T01:10:15;-4.00;73.40
43697;DHT22;29301;47.620;19.560;2023-02-11T01:12:41;-4.00;73.70
43697;DHT22;29301;47.620;19.560;2023-02-11T01:15:10;-3.90;74.00
43697;DHT22;29301;47.620;19.560;2023-02-11T01:17:36;-3.80;73.90
43697;DHT22;29301;47.620;19.560;2023-02-11T01:20:05;-3.60;73.60
43697;DHT22;29301;47.620;19.560;2023-02-11T01:22:32;-3.60;72.90
43697;DHT22;29301;47.620;19.560;2023-02-11T01:24:59;-3.50;72.30
43697;DHT22;29301;47.620;19.560;2023-02-11T01:27:24;-3.50;71.30
43697;DHT22;29301;47.620;19.560;2023-02-11T01:29:50;-3.60;71.20
43697;DHT22;29301;47.620;19.560;2023-02-11T01:32:16;-3.60;71.00
43697;DHT22;29301;47.620;19.560;2023-02-11T01:34:41;-3.60;71.20
43697;DHT22;29301;47.620;19.560;2023-02-11T01:37:07;-3.50;71.50
43697;DHT22;29301;47.620;19.560;2023-02-11T01:39:33;-3.60;71.60
43697;DHT22;29301;47.620;19.560;2023-02-11T01:42:00;-3.60;72.00
43697;DHT22;29301;47.620;19.560;2023-02-11T01:44:36;-3.60;72.40
43697;DHT22;29301;47.620;19.560;2023-02-11T01:47:03;-3.60;72.30
43697;DHT22;29301;47.620;19.560;2023-02-11T01:49:32;-3.50;72.10
43697;DHT22;29301;47.620;19.560;2023-02-11T01:52:22;-3.60;72.20
43697;DHT22;29301;47.620;19.560;2023-02-11T01:54:55;-3.60;72.30
43697;DHT22;29301;47.620;19.560;2023-02-11T01:57:43;-3.70;72.10
43697;DHT22;29301;47.620;19.560;2023-02-11T02:08:17;-4.00;73.60
43697;DHT22;29301;47.620;19.560;2023-02-11T02:10:47;-4.00;73.80
43697;DHT22;29301;47.620;19.560;2023-02-11T02:13:14;-4.00;73.70
43697;DHT22;29301;47.620;19.560;2023-02-11T02:15:45;-3.90;73.90
43697;DHT22;29301;47.620;19.560;2023-02-11T02:34:35;-3.70;72.90
43697;DHT22;29301;47.620;19.560;2023-02-11T02:40:16;-3.90;72.40
43697;DHT22;29301;47.620;19.560;2023-02-11T02:42:43;-4.00;73.00
43697;DHT22;29301;47.620;19.560;2023-02-11T02:45:10;-3.90;73.40
43697;DHT22;29301;47.620;19.560;2023-02-11T02:47:36;-3.90;73.40
43697;DHT22;29301;47.620;19.560;2023-02-11T02:50:03;-3.90;73.30
43697;DHT22;29301;47.620;19.560;2023-02-11T02:52:34;-3.80;73.20
43697;DHT22;29301;47.620;19.560;2023-02-11T02:55:11;-3.90;72.90
43697;DHT22;29301;47.620;19.560;2023-02-11T03:00:55;-3.90;72.80
43697;DHT22;29301;47.620;19.560;2023-02-11T03:06:12;-3.80;72.60
43697;DHT22;29301;47.620;19.560;2023-02-11T03:09:01;-3.80;72.20
43697;DHT22;29301;47.620;19.560;2023-02-11T03:11:28;-3.80;72.10
43697;DHT22;29301;47.620;19.560;2023-02-11T03:13:55;-3.80;71.80
43697;DHT22;29301;47.620;19.560;2023-02-11T03:16:26;-3.80;71.30
43697;DHT22;29301;47.620;19.560;2023-02-11T03:19:01;-3.80;71.30
43697;DHT22;29301;47.620;19.560;2023-02-11T03:21:30;-3.80;71.10
43697;DHT22;29301;47.620;19.560;2023-02-11T03:23:59;-3.70;70.60
43697;DHT22;29301;47.620;19.560;2023-02-11T03:26:31;-3.80;70.10
43697;DHT22;29301;47.620;19.560;2023-02-11T03:31:39;-3.80;69.00
43697;DHT22;29301;47.620;19.560;2023-02-11T03:34:12;-3.90;68.70
43697;DHT22;29301;47.620;19.560;2023-02-11T03:39:41;-4.10;68.40
43697;DHT22;29301;47.620;19.560;2023-02-11T03:42:10;-4.00;68.60
43697;DHT22;29301;47.620;19.560;2023-02-11T03:44:42;-4.00;68.50
43697;DHT22;29301;47.620;19.560;2023-02-11T03:47:11;-3.90;68.60
43697;DHT22;29301;47.620;19.560;2023-02-11T03:49:39;-3.90;68.70
43697;DHT22;29301;47.620;19.560;2023-02-11T03:52:07;-3.90;68.50
43697;DHT22;29301;47.620;19.560;2023-02-11T03:54:36;-4.00;67.30
43697;DHT22;29301;47.620;19.560;2023-02-11T03:57:03;-4.30;66.80
43697;DHT22;29301;47.620;19.560;2023-02-11T03:59:29;-4.40;67.30
43697;DHT22;29301;47.620;19.560;2023-02-11T04:01:55;-4.50;67.40
43697;DHT22;29301;47.620;19.560;2023-02-11T04:04:22;-4.70;67.60
43697;DHT22;29301;47.620;19.560;2023-02-11T04:06:47;-4.70;68.20
43697;DHT22;29301;47.620;19.560;2023-02-11T04:09:13;-4.70;68.20
43697;DHT22;29301;47.620;19.560;2023-02-11T04:11:39;-4.80;68.20
43697;DHT22;29301;47.620;19.560;2023-02-11T04:14:05;-4.80;68.50
43697;DHT22;29301;47.620;19.560;2023-02-11T04:16:31;-4.80;68.50
43697;DHT22;29301;47.620;19.560;2023-02-11T04:18:57;-4.80;68.80
43697;DHT22;29301;47.620;19.560;2023-02-11T04:21:22;-5.10;68.50
43697;DHT22;29301;47.620;19.560;2023-02-11T04:23:48;-5.20;69.30
43697;DHT22;29301;47.620;19.560;2023-02-11T04:26:14;-5.20;69.70
43697;DHT22;29301;47.620;19.560;2023-02-11T04:28:39;-5.40;69.40
43697;DHT22;29301;47.620;19.560;2023-02-11T04:31:05;-5.40;70.40
43697;DHT22;29301;47.620;19.560;2023-02-11T04:33:31;-5.20;71.20
43697;DHT22;29301;47.620;19.560;2023-02-11T04:35:56;-5.10;71.40
43697;DHT22;29301;47.620;19.560;2023-02-11T04:38:22;-4.90;71.30
43697;DHT22;29301;47.620;19.560;2023-02-11T04:40:51;-4.80;71.00
43697;DHT22;29301;47.620;19.560;2023-02-11T04:43:16;-4.70;70.40
43697;DHT22;29301;47.620;19.560;2023-02-11T04:45:42;-4.80;69.60
43697;DHT22;29301;47.620;19.560;2023-02-11T04:48:08;-4.80;69.40
43697;DHT22;29301;47.620;19.560;2023-02-11T04:50:33;-4.70;69.50
43697;DHT22;29301;47.620;19.560;2023-02-11T04:52:59;-4.70;69.20
43697;DHT22;29301;47.620;19.560;2023-02-11T04:55:25;-4.80;69.30
43697;DHT22;29301;47.620;19.560;2023-02-11T04:57:50;-4.80;69.50
43697;DHT22;29301;47.620;19.560;2023-02-11T05:00:16;-4.80;69.50
43697;DHT22;29301;47.620;19.560;2023-02-11T05:02:42;-4.90;69.50
43697;DHT22;29301;47.620;19.560;2023-02-11T05:05:07;-5.00;69.00
43697;DHT22;29301;47.620;19.560;2023-02-11T05:07:33;-5.20;69.40
43697;DHT22;29301;47.620;19.560;2023-02-11T05:09:59;-5.20;70.20
43697;DHT22;29301;47.620;19.560;2023-02-11T05:12:25;-5.10;70.70
43697;DHT22;29301;47.620;19.560;2023-02-11T05:14:50;-5.00;71.00
43697;DHT22;29301;47.620;19.560;2023-02-11T05:17:16;-5.00;71.10
43697;DHT22;29301;47.620;19.560;2023-02-11T05:19:42;-4.90;71.20
43697;DHT22;29301;47.620;19.560;2023-02-11T05:22:07;-4.90;71.20
43697;DHT22;29301;47.620;19.560;2023-02-11T05:24:34;-4.90;71.30
43697;DHT22;29301;47.620;19.560;2023-02-11T05:27:00;-4.90;71.40
43697;DHT22;29301;47.620;19.560;2023-02-11T05:29:26;-4.80;71.50
43697;DHT22;29301;47.620;19.560;2023-02-11T05:31:52;-4.70;71.50
43697;DHT22;29301;47.620;19.560;2023-02-11T05:34:18;-4.70;71.40
43697;DHT22;29301;47.620;19.560;2023-02-11T05:36:43;-4.60;71.20
43697;DHT22;29301;47.620;19.560;2023-02-11T05:39:09;-4.60;71.10
43697;DHT22;29301;47.620;19.560;2023-02-11T05:41:35;-4.70;71.00
43697;DHT22;29301;47.620;19.560;2023-02-11T05:44:00;-4.70;71.10
43697;DHT22;29301;47.620;19.560;2023-02-11T05:46:26;-4.80;71.40
43697;DHT22;29301;47.620;19.560;2023-02-11T05:48:52;-4.80;71.60
43697;DHT22;29301;47.620;19.560;2023-02-11T05:51:17;-4.80;71.70
43697;DHT22;29301;47.620;19.560;2023-02-11T05:53:43;-4.80;71.30
43697;DHT22;29301;47.620;19.560;2023-02-11T05:56:09;-5.00;70.80
43697;DHT22;29301;47.620;19.560;2023-02-11T05:58:35;-5.00;71.00
43697;DHT22;29301;47.620;19.560;2023-02-11T06:01:03;-4.90;71.20
43697;DHT22;29301;47.620;19.560;2023-02-11T06:03:28;-4.80;71.40
43697;DHT22;29301;47.620;19.560;2023-02-11T06:05:54;-4.70;71.50
43697;DHT22;29301;47.620;19.560;2023-02-11T06:08:20;-4.60;71.40
43697;DHT22;29301;47.620;19.560;2023-02-11T06:10:46;-4.60;71.40
43697;DHT22;29301;47.620;19.560;2023-02-11T06:13:11;-4.60;71.40
43697;DHT22;29301;47.620;19.560;2023-02-11T06:15:37;-4.50;71.40
43697;DHT22;29301;47.620;19.560;2023-02-11T06:18:03;-4.50;71.30
43697;DHT22;29301;47.620;19.560;2023-02-11T06:20:29;-4.40;71.20
43697;DHT22;29301;47.620;19.560;2023-02-11T06:22:55;-4.40;71.00
43697;DHT22;29301;47.620;19.560;2023-02-11T06:25:20;-4.40;70.90
43697;DHT22;29301;47.620;19.560;2023-02-11T06:27:46;-4.40;71.10
43697;DHT22;29301;47.620;19.560;2023-02-11T06:30:12;-4.40;71.10
43697;DHT22;29301;47.620;19.560;2023-02-11T06:32:38;-4.30;71.10
43697;DHT22;29301;47.620;19.560;2023-02-11T06:35:04;-4.40;71.10
43697;DHT22;29301;47.620;19.560;2023-02-11T06:37:30;-4.40;71.40
43697;DHT22;29301;47.620;19.560;2023-02-11T06:39:55;-4.40;71.60
43697;DHT22;29301;47.620;19.560;2023-02-11T06:42:21;-4.50;71.60
43697;DHT22;29301;47.620;19.560;2023-02-11T06:44:47;-4.70;72.30
43697;DHT22;29301;47.620;19.560;2023-02-11T06:47:12;-4.60;73.20
43697;DHT22;29301;47.620;19.560;2023-02-11T06:49:38;-4.50;73.80
43697;DHT22;29301;47.620;19.560;2023-02-11T06:52:05;-4.40;74.00
43697;DHT22;29301;47.620;19.560;2023-02-11T06:54:30;-4.30;74.00
43697;DHT22;29301;47.620;19.560;2023-02-11T06:56:56;-4.20;73.90
43697;DHT22;29301;47.620;19.560;2023-02-11T06:59:22;-4.20;73.90
43697;DHT22;29301;47.620;19.560;2023-02-11T07:01:47;-4.10;73.90
43697;DHT22;29301;47.620;19.560;2023-02-11T07:04:13;-4.10;73.90
43697;DHT22;29301;47.620;19.560;2023-02-11T07:06:40;-4.00;73.90
43697;DHT22;29301;47.620;19.560;2023-02-11T07:09:06;-4.00;73.60
43697;DHT22;29301;47.620;19.560;2023-02-11T07:11:33;-3.90;73.80
43697;DHT22;29301;47.620;19.560;2023-02-11T07:14:01;-3.90;73.90
43697;DHT22;29301;47.620;19.560;2023-02-11T07:16:28;-3.80;73.90
43697;DHT22;29301;47.620;19.560;2023-02-11T07:18:53;-3.80;73.70
43697;DHT22;29301;47.620;19.560;2023-02-11T07:21:20;-3.70;73.70
43697;DHT22;29301;47.620;19.560;2023-02-11T07:23:47;-3.70;73.80
43697;DHT22;29301;47.620;19.560;2023-02-11T07:26:16;-3.70;73.80
43697;DHT22;29301;47.620;19.560;2023-02-11T07:28:42;-3.50;74.00
43697;DHT22;29301;47.620;19.560;2023-02-11T07:31:28;-3.50;74.10
43697;DHT22;29301;47.620;19.560;2023-02-11T07:33:56;-3.30;74.80
43697;DHT22;29301;47.620;19.560;2023-02-11T07:36:22;-3.20;74.90
43697;DHT22;29301;47.620;19.560;2023-02-11T07:38:49;-3.00;75.30
43697;DHT22;29301;47.620;19.560;2023-02-11T07:41:17;-2.80;75.50
43697;DHT22;29301;47.620;19.560;2023-02-11T07:43:43;-2.70;75.00
43697;DHT22;29301;47.620;19.560;2023-02-11T07:46:14;-2.60;74.70
43697;DHT22;29301;47.620;19.560;2023-02-11T07:48:40;-2.50;75.00
43697;DHT22;29301;47.620;19.560;2023-02-11T07:51:10;-2.50;75.30
43697;DHT22;29301;47.620;19.560;2023-02-11T07:53:36;-2.40;76.00
43697;DHT22;29301;47.620;19.560;2023-02-11T07:56:04;-2.30;76.60
43697;DHT22;29301;47.620;19.560;2023-02-11T07:58:30;-2.20;77.50
43697;DHT22;29301;47.620;19.560;2023-02-11T08:01:00;-2.10;78.70
43697;DHT22;29301;47.620;19.560;2023-02-11T08:03:26;-2.00;79.60
43697;DHT22;29301;47.620;19.560;2023-02-11T08:05:52;-1.90;80.10
43697;DHT22;29301;47.620;19.560;2023-02-11T08:08:18;-1.80;80.20
43697;DHT22;29301;47.620;19.560;2023-02-11T08:10:44;-1.60;86.00
43697;DHT22;29301;47.620;19.560;2023-02-11T08:13:09;-0.80;99.00
43697;DHT22;29301;47.620;19.560;2023-02-11T08:15:35;-0.20;99.90
43697;DHT22;29301;47.620;19.560;2023-02-11T08:18:00;-0.10;99.90
43697;DHT22;29301;47.620;19.560;2023-02-11T08:20:26;-0.20;96.80
43697;DHT22;29301;47.620;19.560;2023-02-11T08:22:52;-0.40;94.40
43697;DHT22;29301;47.620;19.560;2023-02-11T08:25:17;-0.40;92.70
43697;DHT22;29301;47.620;19.560;2023-02-11T08:27:43;-0.40;91.30
43697;DHT22;29301;47.620;19.560;2023-02-11T08:30:09;-0.40;89.80
43697;DHT22;29301;47.620;19.560;2023-02-11T08:32:35;-0.30;87.80
43697;DHT22;29301;47.620;19.560;2023-02-11T08:35:01;-0.20;85.80
43697;DHT22;29301;47.620;19.560;2023-02-11T08:37:26;-0.20;84.70
43697;DHT22;29301;47.620;19.560;2023-02-11T08:39:52;-0.20;83.60
43697;DHT22;29301;47.620;19.560;2023-02-11T08:42:18;-0.20;84.10
43697;DHT22;29301;47.620;19.560;2023-02-11T08:44:43;-0.20;84.10
43697;DHT22;29301;47.620;19.560;2023-02-11T08:47:10;-0.20;83.70
43697;DHT22;29301;47.620;19.560;2023-02-11T08:49:36;-0.10;83.80
43697;DHT22;29301;47.620;19.560;2023-02-11T08:52:01;-0.10;83.20
43697;DHT22;29301;47.620;19.560;2023-02-11T08:54:30;-0.10;83.40
43697;DHT22;29301;47.620;19.560;2023-02-11T08:56:56;0.00;83.70
43697;DHT22;29301;47.620;19.560;2023-02-11T08:59:22;0.00;83.90
43697;DHT22;29301;47.620;19.560;2023-02-11T09:01:47;0.00;84.00
43697;DHT22;29301;47.620;19.560;2023-02-11T09:04:13;0.20;84.10
43697;DHT22;29301;47.620;19.560;2023-02-11T09:06:39;0.30;83.60
43697;DHT22;29301;47.620;19.560;2023-02-11T09:09:05;0.50;85.90
43697;DHT22;29301;47.620;19.560;2023-02-11T09:11:35;0.60;83.00
43697;DHT22;29301;47.620;19.560;2023-02-11T09:14:01;0.80;82.00
43697;DHT22;29301;47.620;19.560;2023-02-11T09:16:30;0.90;79.30
43697;DHT22;29301;47.620;19.560;2023-02-11T09:18:57;1.00;78.20
43697;DHT22;29301;47.620;19.560;2023-02-11T09:21:23;1.10;78.40
43697;DHT22;29301;47.620;19.560;2023-02-11T09:23:48;1.20;77.20
43697;DHT22;29301;47.620;19.560;2023-02-11T09:26:16;1.30;76.30
43697;DHT22;29301;47.620;19.560;2023-02-11T09:28:42;1.50;73.40
43697;DHT22;29301;47.620;19.560;2023-02-11T09:31:11;1.70;70.00
43697;DHT22;29301;47.620;19.560;2023-02-11T09:33:38;1.90;67.30
43697;DHT22;29301;47.620;19.560;2023-02-11T09:36:06;2.00;66.30
43697;DHT22;29301;47.620;19.560;2023-02-11T09:38:32;2.10;65.70
43697;DHT22;29301;47.620;19.560;2023-02-11T09:40:58;2.20;63.80
43697;DHT22;29301;47.620;19.560;2023-02-11T09:43:45;2.20;63.80
43697;DHT22;29301;47.620;19.560;2023-02-11T09:46:14;2.30;63.20
43697;DHT22;29301;47.620;19.560;2023-02-11T09:48:42;2.40;63.10
43697;DHT22;29301;47.620;19.560;2023-02-11T09:51:43;2.50;62.20
43697;DHT22;29301;47.620;19.560;2023-02-11T09:54:20;2.50;62.10
43697;DHT22;29301;47.620;19.560;2023-02-11T09:56:47;2.60;62.30
43697;DHT22;29301;47.620;19.560;2023-02-11T09:59:14;2.70;61.30
43697;DHT22;29301;47.620;19.560;2023-02-11T10:01:47;2.80;60.80
43697;DHT22;29301;47.620;19.560;2023-02-11T10:04:32;2.90;61.20
43697;DHT22;29301;47.620;19.560;2023-02-11T10:07:26;2.90;61.40
43697;DHT22;29301;47.620;19.560;2023-02-11T10:10:23;3.00;60.70
43697;DHT22;29301;47.620;19.560;2023-02-11T10:24:02;3.50;59.50
43697;DHT22;29301;47.620;19.560;2023-02-11T10:26:30;3.50;58.40
43697;DHT22;29301;47.620;19.560;2023-02-11T10:29:00;3.40;57.90
43697;DHT22;29301;47.620;19.560;2023-02-11T10:31:35;3.40;57.70
43697;DHT22;29301;47.620;19.560;2023-02-11T10:34:13;3.50;57.20
43697;DHT22;29301;47.620;19.560;2023-02-11T10:36:41;3.50;55.70
43697;DHT22;29301;47.620;19.560;2023-02-11T10:39:13;3.50;55.40
43697;DHT22;29301;47.620;19.560;2023-02-11T10:41:56;3.60;55.40
43697;DHT22;29301;47.620;19.560;2023-02-11T10:44:32;3.80;54.60
43697;DHT22;29301;47.620;19.560;2023-02-11T10:47:02;3.80;53.80
43697;DHT22;29301;47.620;19.560;2023-02-11T10:49:44;3.90;53.50
43697;DHT22;29301;47.620;19.560;2023-02-11T10:55:09;4.00;53.20
43697;DHT22;29301;47.620;19.560;2023-02-11T10:58:00;3.90;52.60
43697;DHT22;29301;47.620;19.560;2023-02-11T11:02:57;3.70;52.00
43697;DHT22;29301;47.620;19.560;2023-02-11T11:05:36;3.60;52.40
43697;DHT22;29301;47.620;19.560;2023-02-11T11:08:07;3.50;53.10
43697;DHT22;29301;47.620;19.560;2023-02-11T11:13:02;3.70;53.50
43697;DHT22;29301;47.620;19.560;2023-02-11T11:15:30;3.80;54.40
43697;DHT22;29301;47.620;19.560;2023-02-11T11:18:15;4.10;53.60
43697;DHT22;29301;47.620;19.560;2023-02-11T11:20:57;4.20;51.80
43697;DHT22;29301;47.620;19.560;2023-02-11T11:23:24;4.40;53.70
43697;DHT22;29301;47.620;19.560;2023-02-11T11:26:11;4.60;50.90
43697;DHT22;29301;47.620;19.560;2023-02-11T11:28:57;4.60;50.10
43697;DHT22;29301;47.620;19.560;2023-02-11T11:33:57;4.70;48.90
43697;DHT22;29301;47.620;19.560;2023-02-11T11:36:35;4.80;49.50
43697;DHT22;29301;47.620;19.560;2023-02-11T11:39:14;4.80;49.60
43697;DHT22;29301;47.620;19.560;2023-02-11T11:41:50;4.80;50.00
43697;DHT22;29301;47.620;19.560;2023-02-11T11:44:26;4.80;50.80
43697;DHT22;29301;47.620;19.560;2023-02-11T11:47:14;4.80;50.00
43697;DHT22;29301;47.620;19.560;2023-02-11T11:55:23;5.00;50.00
43697;DHT22;29301;47.620;19.560;2023-02-11T11:57:49;5.20;54.40
43697;DHT22;29301;47.620;19.560;2023-02-11T12:00:21;5.30;50.50
43697;DHT22;29301;47.620;19.560;2023-02-11T12:05:25;5.50;46.70
43697;DHT22;29301;47.620;19.560;2023-02-11T12:10:42;5.70;45.60
43697;DHT22;29301;47.620;19.560;2023-02-11T12:18:29;5.90;44.60
43697;DHT22;29301;47.620;19.560;2023-02-11T12:26:21;5.90;42.70
43697;DHT22;29301;47.620;19.560;2023-02-11T12:32:12;5.80;42.70
43697;DHT22;29301;47.620;19.560;2023-02-11T12:35:05;5.80;42.70
43697;DHT22;29301;47.620;19.560;2023-02-11T12:43:22;5.90;42.90
43697;DHT22;29301;47.620;19.560;2023-02-11T12:46:10;6.00;40.90
43697;DHT22;29301;47.620;19.560;2023-02-11T12:57:16;6.10;42.10
43697;DHT22;29301;47.620;19.560;2023-02-11T13:00:04;6.00;42.10
43697;DHT22;29301;47.620;19.560;2023-02-11T13:05:37;6.20;42.20
43697;DHT22;29301;47.620;19.560;2023-02-11T13:10:37;6.20;41.40
43697;DHT22;29301;47.620;19.560;2023-02-11T13:13:28;6.20;41.90
43697;DHT22;29301;47.620;19.560;2023-02-11T13:15:57;6.20;42.80
43697;DHT22;29301;47.620;19.560;2023-02-11T13:31:18;6.30;43.80
43697;DHT22;29301;47.620;19.560;2023-02-11T13:33:45;6.30;42.40
43697;DHT22;29301;47.620;19.560;2023-02-11T13:36:19;6.30;42.00
43697;DHT22;29301;47.620;19.560;2023-02-11T13:38:57;6.30;46.90
43697;DHT22;29301;47.620;19.560;2023-02-11T13:41:39;6.50;41.50
43697;DHT22;29301;47.620;19.560;2023-02-11T13:46:53;6.60;43.90
43697;DHT22;29301;47.620;19.560;2023-02-11T13:49:32;6.60;40.00
43697;DHT22;29301;47.620;19.560;2023-02-11T13:52:02;6.60;40.00
43697;DHT22;29301;47.620;19.560;2023-02-11T13:54:35;6.50;40.30
43697;DHT22;29301;47.620;19.560;2023-02-11T13:59:55;6.40;41.50
43697;DHT22;29301;47.620;19.560;2023-02-11T14:02:33;6.30;41.60
43697;DHT22;29301;47.620;19.560;2023-02-11T14:05:24;6.20;42.00
43697;DHT22;29301;47.620;19.560;2023-02-11T14:11:10;6.20;42.10
43697;DHT22;29301;47.620;19.560;2023-02-11T14:16:23;6.20;41.40
43697;DHT22;29301;47.620;19.560;2023-02-11T14:26:57;6.00;41.70
43697;DHT22;29301;47.620;19.560;2023-02-11T14:35:42;5.90;42.40
43697;DHT22;29301;47.620;19.560;2023-02-11T14:40:47;6.10;49.10
43697;DHT22;29301;47.620;19.560;2023-02-11T14:43:19;6.20;44.00
43697;DHT22;29301;47.620;19.560;2023-02-11T14:45:50;6.10;43.10
43697;DHT22;29301;47.620;19.560;2023-02-11T14:48:19;6.10;43.30
43697;DHT22;29301;47.620;19.560;2023-02-11T14:50:53;6.10;42.40
43697;DHT22;29301;47.620;19.560;2023-02-11T14:53:22;6.10;41.50
43697;DHT22;29301;47.620;19.560;2023-02-11T14:55:53;6.10;41.40
43697;DHT22;29301;47.620;19.560;2023-02-11T15:03:34;6.20;39.80
43697;DHT22;29301;47.620;19.560;2023-02-11T15:06:17;6.20;39.40
43697;DHT22;29301;47.620;19.560;2023-02-11T15:08:46;6.20;40.00
43697;DHT22;29301;47.620;19.560;2023-02-11T15:11:15;6.10;39.80
43697;DHT22;29301;47.620;19.560;2023-02-11T15:13:42;6.10;39.60
43697;DHT22;29301;47.620;19.560;2023-02-11T15:16:12;6.00;39.50
43697;DHT22;29301;47.620;19.560;2023-02-11T15:18:45;6.00;40.00
43697;DHT22;29301;47.620;19.560;2023-02-11T15:21:18;6.00;40.00
43697;DHT22;29301;47.620;19.560;2023-02-11T15:23:58;6.00;39.70
43697;DHT22;29301;47.620;19.560;2023-02-11T15:26:24;6.00;40.30
43697;DHT22;29301;47.620;19.560;2023-02-11T15:28:50;5.90;40.40
43697;DHT22;29301;47.620;19.560;2023-02-11T15:31:23;5.90;40.70
43697;DHT22;29301;47.620;19.560;2023-02-11T15:33:50;5.80;41.00
43697;DHT22;29301;47.620;19.560;2023-02-11T15:36:18;5.80;41.30
43697;DHT22;29301;47.620;19.560;2023-02-11T15:38:45;5.70;41.40
43697;DHT22;29301;47.620;19.560;2023-02-11T15:41:34;5.70;41.50
43697;DHT22;29301;47.620;19.560;2023-02-11T15:44:00;5.70;41.60
43697;DHT22;29301;47.620;19.560;2023-02-11T15:46:35;5.60;41.80
43697;DHT22;29301;47.620;19.560;2023-02-11T15:49:02;5.70;41.50
43697;DHT22;29301;47.620;19.560;2023-02-11T15:51:34;5.60;41.30
43697;DHT22;29301;47.620;19.560;2023-02-11T15:54:16;5.60;41.50
43697;DHT22;29301;47.620;19.560;2023-02-11T15:56:45;5.60;41.00
43697;DHT22;29301;47.620;19.560;2023-02-11T16:01:53;5.50;41.30
43697;DHT22;29301;47.620;19.560;2023-02-11T16:04:21;5.50;41.20
43697;DHT22;29301;47.620;19.560;2023-02-11T16:06:48;5.40;41.30
43697;DHT22;29301;47.620;19.560;2023-02-11T16:19:27;5.20;41.70
43697;DHT22;29301;47.620;19.560;2023-02-11T16:21:55;5.20;41.50
43697;DHT22;29301;47.620;19.560;2023-02-11T16:24:31;5.20;41.50
43697;DHT22;29301;47.620;19.560;2023-02-11T16:27:03;5.10;41.30
43697;DHT22;29301;47.620;19.560;2023-02-11T16:29:35;5.20;48.20
43697;DHT22;29301;47.620;19.560;2023-02-11T16:32:15;5.20;42.80
43697;DHT22;29301;47.620;19.560;2023-02-11T16:34:42;5.00;42.10
43697;DHT22;29301;47.620;19.560;2023-02-11T16:37:09;4.90;42.60
43697;DHT22;29301;47.620;19.560;2023-02-11T16:39:35;4.90;42.70
43697;DHT22;29301;47.620;19.560;2023-02-11T16:42:01;4.80;42.70
43697;DHT22;29301;47.620;19.560;2023-02-11T16:44:27;4.70;43.10
43697;DHT22;29301;47.620;19.560;2023-02-11T16:46:54;4.60;43.50
43697;DHT22;29301;47.620;19.560;2023-02-11T16:49:25;4.60;43.70
43697;DHT22;29301;47.620;19.560;2023-02-11T16:51:53;4.50;43.60
43697;DHT22;29301;47.620;19.560;2023-02-11T16:54:24;4.50;43.60
43697;DHT22;29301;47.620;19.560;2023-02-11T16:56:54;4.60;43.30
43697;DHT22;29301;47.620;19.560;2023-02-11T16:59:25;4.50;43.50
43697;DHT22;29301;47.620;19.560;2023-02-11T17:02:25;4.40;43.80
43697;DHT22;29301;47.620;19.560;2023-02-11T17:08:33;4.40;43.80
43697;DHT22;29301;47.620;19.560;2023-02-11T17:11:35;4.60;48.30
43697;DHT22;29301;47.620;19.560;2023-02-11T17:14:44;4.60;45.40
43697;DHT22;29301;47.620;19.560;2023-02-11T17:18:01;4.50;45.10
43697;DHT22;29301;47.620;19.560;2023-02-11T17:34:52;4.50;46.20
43697;DHT22;29301;47.620;19.560;2023-02-11T17:37:55;4.50;46.70
43697;DHT22;29301;47.620;19.560;2023-02-11T17:41:26;4.30;47.40
43697;DHT22;29301;47.620;19.560;2023-02-11T17:44:18;4.10;48.30
43697;DHT22;29301;47.620;19.560;2023-02-11T17:47:14;3.90;49.20
43697;DHT22;29301;47.620;19.560;2023-02-11T17:57:04;4.10;49.50
43697;DHT22;29301;47.620;19.560;2023-02-11T18:00:07;4.20;49.20
43697;DHT22;29301;47.620;19.560;2023-02-11T18:16:29;4.10;50.50
43697;DHT22;29301;47.620;19.560;2023-02-11T18:19:31;4.00;50.90
43697;DHT22;29301;47.620;19.560;2023-02-11T18:26:17;4.10;50.80
43697;DHT22;29301;47.620;19.560;2023-02-11T18:36:37;4.30;50.20
43697;DHT22;29301;47.620;19.560;2023-02-11T18:43:51;4.30;50.00
43697;DHT22;29301;47.620;19.560;2023-02-11T18:47:19;4.40;50.10
43697;DHT22;29301;47.620;19.560;2023-02-11T18:54:09;4.30;50.50
43697;DHT22;29301;47.620;19.560;2023-02-11T18:57:19;4.30;51.00
43697;DHT22;29301;47.620;19.560;2023-02-11T19:00:18;4.20;51.20
43697;DHT22;29301;47.620;19.560;2023-02-11T19:10:01;4.30;51.70
43697;DHT22;29301;47.620;19.560;2023-02-11T19:44:04;4.60;52.80
43697;DHT22;29301;47.620;19.560;2023-02-11T19:47:01;4.60;53.30
43697;DHT22;29301;47.620;19.560;2023-02-11T19:50:21;4.60;52.30
43697;DHT22;29301;47.620;19.560;2023-02-11T19:53:16;4.60;52.00
43697;DHT22;29301;47.620;19.560;2023-02-11T19:56:10;4.60;52.10
43697;DHT22;29301;47.620;19.560;2023-02-11T20:10:06;4.40;52.50
43697;DHT22;29301;47.620;19.560;2023-02-11T20:13:01;4.40;52.70
43697;DHT22;29301;47.620;19.560;2023-02-11T20:16:21;4.40;52.80
43697;DHT22;29301;47.620;19.560;2023-02-11T20:21:57;4.50;52.90
43697;DHT22;29301;47.620;19.560;2023-02-11T20:24:23;4.40;53.20
43697;DHT22;29301;47.620;19.560;2023-02-11T20:26:51;4.30;53.40